Alma, Arkansas
Current Conditions -  °F | °C
As of 4:27 PM on Friday 19 Dec 2014 (Local Time) from KFSM Reporting Station
Haze Haze  
Wind Chill:   Ceiling: 1000
Heat Index:   Visibility: 3mi
Dew Point:   Wind: 6mph
Humidity: 82%   Direction: 60°ENE
Pressure: 30.21"   Gusts: NA
Location:  35.48°N, 94.22°W
Report Text: KFSM 192227Z 06005KT 3SM HZ OVC010 07/04 A3021 RMK AO2 T00670039
Loading
Personal Weather Stations






























Interactive Weather Map New forecast layout! Learn more

10-Day Weather Forecast

Advertisements
Track Severe Weather on mobile